Huvudsida
METAR-TAF:

METAR-TAF

Flygplatser :

Jeddah, Saudiarabien

latitud: 21-42N, longitud: 039-11E, höjd: 15 m

Aktuellt väderrapport

Denna rapport gjordes för 33 minuter sedan, klockan 14:00 UTC
Vind 12 kt från nord/nordväst
Temperatur 27°C
Fuktighet 39%
Tryck 1015 hPa
Sikt 10 km eller mer
Få moln på en höjd av 3500 ft

METAR: OEJN 161400Z 33012KT 9999 FEW035 27/12 Q1015 NOSIG

Tid: 17:33 (14:33 UTC)

Väderprognos

Denna rapport gjordes för 3 timmar och 33 minuter sedan, klockan 11:00 UTC
Prognos gäller från 16 kl. 12 UTC till 17 kl. 18 UTC
Vind 15 kt från nord/nordväst
Sikt 10 km eller mer
Få moln på en höjd av 4000 ft
Blir
från 16 kl. 18 UTC till 16 kl. 20 UTC
Vind 8 kt från nord/nordost

TAF: OEJN 161100Z 1612/1718 33015KT 9999 FEW040 BECMG 1618/1620 03008KT

Aktuella väderrapporter och prognoser från 4000 flygplatser (METAR- och TAF-rapporter).

De tillgängliga stationerna syns som gula och röda prickar på kartan.

För musen över prickarna för att se namnen på stationerna.

Klicka sedan för att få väderrapporter och prognoser.

För att ändra kartan: Klicka på de gröna knapparna med ett svart kors på för att zooma in; den gröna knappen med ett streck på för att zooma ut; eller på de gröna pilarna för angränsande kartor.


METAR-TAF: